Time;durP1;ratioP1;P1;durP2;ratioP2;P2;SDS_P1;SDS_P2;PMS_P1;PMS_P2;Temp;Humidity;BMP_temperature;BMP_pressure;BME280_temperature;BME280_humidity;BME280_pressure;Samples;Min_cycle;Max_cycle;Signal;HPM_P1;HPM_P2
2023/10/14 00:01:15;;;;;;;10.10;3.13;;;14.40;8.30;;;;;;5004831;28;46158;-85
2023/10/14 00:03:45;;;;;;;8.23;3.77;;;14.40;8.60;;;;;;5003973;28;45903;-83
2023/10/14 00:06:12;;;;;;;7.90;3.20;;;14.40;8.50;;;;;;5003757;28;47051;-84
2023/10/14 00:09:06;;;;;;;8.97;3.47;;;14.50;8.60;;;;;;5002862;28;46455;-83
2023/10/14 00:11:46;;;;;;;10.47;3.53;;;14.70;8.50;;;;;;4999666;28;46467;-84
2023/10/14 00:14:16;;;;;;;8.20;3.60;;;14.80;7.90;;;;;;5000974;28;46833;-83
2023/10/14 00:16:49;;;;;;;13.33;3.67;;;15.10;7.90;;;;;;5001112;28;48077;-82
2023/10/14 00:19:17;;;;;;;13.10;3.10;;;15.20;8.00;;;;;;5000124;28;46506;-82
2023/10/14 00:21:44;;;;;;;9.07;3.63;;;15.40;8.00;;;;;;5001077;28;46560;-81
2023/10/14 00:24:10;;;;;;;5.90;3.00;;;15.60;7.80;;;;;;5001376;28;46515;-83
2023/10/14 00:26:36;;;;;;;13.87;3.70;;;15.60;7.40;;;;;;4999188;28;47359;-81
2023/10/14 00:31:40;;;;;;;13.37;3.40;;;15.80;7.30;;;;;;4996915;28;46501;-83
2023/10/14 00:34:06;;;;;;;10.87;3.20;;;15.80;7.40;;;;;;5000404;28;46420;-81
2023/10/14 00:36:33;;;;;;;8.77;3.80;;;15.90;7.50;;;;;;5000327;28;47194;-84
2023/10/14 00:38:59;;;;;;;7.80;3.67;;;16.00;7.60;;;;;;4999963;28;46531;-83
2023/10/14 00:41:28;;;;;;;7.90;3.60;;;15.80;7.50;;;;;;5004829;28;46531;-79
2023/10/14 00:43:56;;;;;;;8.80;3.17;;;15.80;7.50;;;;;;5006916;28;46329;-81
2023/10/14 00:46:23;;;;;;;10.23;4.40;;;15.90;7.50;;;;;;5004152;28;46939;-81
2023/10/14 00:48:51;;;;;;;6.07;2.90;;;15.90;7.40;;;;;;5005659;28;46483;-80
2023/10/14 00:51:19;;;;;;;14.57;3.10;;;16.00;7.30;;;;;;5003011;28;46523;-84
2023/10/14 00:54:02;;;;;;;10.40;3.70;;;16.10;7.10;;;;;;5002231;28;46472;-83
2023/10/14 00:56:31;;;;;;;7.60;3.90;;;16.20;7.00;;;;;;5002262;28;47581;-84
2023/10/14 00:58:59;;;;;;;9.03;3.43;;;16.20;6.90;;;;;;5004243;28;45865;-83
2023/10/14 01:01:31;;;;;;;7.63;3.63;;;16.40;7.00;;;;;;5003080;28;46380;-83
2023/10/14 01:04:08;;;;;;;9.07;3.03;;;16.40;7.00;;;;;;5004459;28;46436;-83
2023/10/14 01:06:34;;;;;;;8.10;3.23;;;16.40;6.90;;;;;;5003341;28;46979;-81
2023/10/14 01:09:10;;;;;;;10.13;3.63;;;16.40;6.80;;;;;;5005570;28;46173;-83
2023/10/14 01:11:41;;;;;;;7.53;3.20;;;16.50;6.90;;;;;;5003864;28;46387;-83
2023/10/14 01:14:08;;;;;;;9.50;3.37;;;16.50;6.80;;;;;;4999381;28;46483;-83
2023/10/14 01:16:37;;;;;;;18.87;3.60;;;16.50;6.70;;;;;;5003544;28;46776;-83
2023/10/14 01:19:03;;;;;;;13.73;3.70;;;16.60;6.80;;;;;;5004807;28;46299;-83
2023/10/14 01:21:29;;;;;;;9.87;3.80;;;16.60;6.70;;;;;;5007640;28;46465;-84
2023/10/14 01:23:58;;;;;;;6.70;3.40;;;16.60;6.70;;;;;;5011096;28;46431;-84
2023/10/14 01:26:25;;;;;;;8.60;3.10;;;16.60;6.70;;;;;;5012264;28;46700;-83
2023/10/14 01:28:59;;;;;;;8.50;3.07;;;16.60;6.80;;;;;;5012330;28;45733;-84
2023/10/14 01:31:34;;;;;;;7.87;3.40;;;16.60;6.80;;;;;;5012667;28;45883;-84
2023/10/14 01:34:05;;;;;;;9.93;3.43;;;16.60;6.80;;;;;;5012471;28;46429;-83
2023/10/14 01:36:41;;;;;;;9.27;3.97;;;16.60;6.80;;;;;;5009064;28;47467;-83
2023/10/14 01:39:13;;;;;;;9.33;3.67;;;16.60;6.90;;;;;;5015531;28;45796;-85
2023/10/14 01:41:39;;;;;;;6.30;2.90;;;16.70;7.00;;;;;;5013414;28;46562;-81
2023/10/14 01:44:05;;;;;;;9.07;3.60;;;16.70;7.00;;;;;;5013715;28;46483;-83
2023/10/14 01:46:34;;;;;;;13.10;3.60;;;16.60;6.90;;;;;;5011311;28;47085;-85
2023/10/14 01:49:10;;;;;;;8.00;3.40;;;16.60;6.90;;;;;;4999446;28;46851;-82
2023/10/14 01:51:37;;;;;;;9.07;3.40;;;16.70;6.80;;;;;;5000618;28;46718;-84
2023/10/14 01:54:03;;;;;;;11.30;3.80;;;16.90;6.80;;;;;;5003943;28;46654;-84
2023/10/14 01:56:30;;;;;;;6.10;3.57;;;16.90;6.50;;;;;;5003354;28;46538;-84
2023/10/14 01:58:58;;;;;;;9.97;3.57;;;17.00;6.40;;;;;;4994704;28;46967;-83
2023/10/14 02:01:24;;;;;;;7.23;3.00;;;17.10;6.20;;;;;;5003578;28;47262;-84
2023/10/14 02:03:51;;;;;;;8.97;3.40;;;17.20;5.90;;;;;;5002318;28;47943;-84
2023/10/14 02:06:25;;;;;;;9.10;3.53;;;17.30;5.70;;;;;;5007534;28;47380;-86
2023/10/14 02:08:51;;;;;;;9.93;3.63;;;17.40;5.60;;;;;;5009198;28;46356;-83
2023/10/14 02:11:20;;;;;;;13.57;3.73;;;17.50;5.60;;;;;;5003495;28;46489;-83
2023/10/14 02:13:46;;;;;;;9.60;3.00;;;17.50;5.40;;;;;;5001758;28;46451;-84
2023/10/14 02:16:11;;;;;;;11.37;3.70;;;17.50;5.40;;;;;;5003891;28;46408;-83
2023/10/14 02:18:37;;;;;;;16.30;3.50;;;17.60;5.50;;;;;;5002983;28;46712;-82
2023/10/14 02:21:16;;;;;;;11.43;3.40;;;17.60;5.30;;;;;;5003152;28;46563;-83
2023/10/14 02:23:45;;;;;;;9.10;3.43;;;17.60;5.30;;;;;;5002404;28;46463;-84
2023/10/14 02:26:33;;;;;;;8.70;4.13;;;17.80;5.20;;;;;;5003364;28;46420;-84
2023/10/14 02:28:59;;;;;;;10.97;3.60;;;17.80;5.20;;;;;;4998882;28;45836;-84
2023/10/14 02:31:29;;;;;;;7.97;3.53;;;17.80;5.10;;;;;;5001953;28;46417;-83
2023/10/14 02:34:06;;;;;;;14.10;3.57;;;17.90;5.10;;;;;;5000086;28;45931;-84
2023/10/14 02:36:35;;;;;;;9.23;3.27;;;17.90;5.10;;;;;;4999033;28;46664;-83
2023/10/14 02:39:14;;;;;;;8.50;3.20;;;17.90;5.10;;;;;;5002338;28;46453;-83
2023/10/14 02:41:44;;;;;;;8.67;3.90;;;17.90;5.00;;;;;;5001546;28;46744;-83
2023/10/14 02:46:47;;;;;;;8.63;3.47;;;18.00;5.40;;;;;;4998638;28;46182;-84
2023/10/14 02:49:19;;;;;;;10.30;3.70;;;17.90;5.40;;;;;;4998889;28;46352;-83
2023/10/14 02:51:45;;;;;;;7.40;3.20;;;17.90;5.40;;;;;;5003639;28;46386;-83
2023/10/14 02:54:27;;;;;;;10.83;3.40;;;17.80;5.50;;;;;;5004915;28;46446;-84
2023/10/14 02:57:00;;;;;;;7.63;3.73;;;17.80;5.40;;;;;;5000728;28;46352;-82
2023/10/14 02:59:38;;;;;;;9.43;3.13;;;17.70;5.30;;;;;;5004374;28;46536;-82
2023/10/14 03:04:55;;;;;;;14.53;3.50;;;17.80;5.50;;;;;;4996970;28;46543;-82
2023/10/14 03:07:28;;;;;;;7.23;3.47;;;17.70;5.50;;;;;;5002068;28;47176;-82
2023/10/14 03:12:49;;;;;;;9.60;3.60;;;17.80;5.50;;;;;;4996529;28;47495;-84
2023/10/14 03:15:19;;;;;;;10.90;3.87;;;18.00;5.50;;;;;;4996689;28;48056;-84
2023/10/14 03:18:30;;;;;;;9.60;3.40;;;18.00;5.40;;;;;;4999886;28;46482;-83
2023/10/14 03:23:24;;;;;;;11.90;3.70;;;18.20;5.40;;;;;;5004619;28;46530;-85
2023/10/14 03:26:03;;;;;;;12.13;3.73;;;18.30;5.40;;;;;;5003486;28;46320;-86
2023/10/14 03:28:30;;;;;;;8.67;3.27;;;18.20;5.20;;;;;;5003862;28;46615;-86
2023/10/14 03:31:00;;;;;;;10.73;4.20;;;18.40;5.20;;;;;;5001609;28;46406;-84
2023/10/14 03:33:32;;;;;;;8.33;3.90;;;18.50;5.10;;;;;;5000426;28;45775;-85
2023/10/14 03:36:09;;;;;;;7.37;4.10;;;18.50;5.10;;;;;;4998230;28;46435;-84
2023/10/14 03:41:21;;;;;;;9.10;3.70;;;18.60;5.10;;;;;;4999714;28;46380;-84
2023/10/14 03:46:35;;;;;;;10.67;3.87;;;18.80;5.00;;;;;;4998893;28;46387;-85
2023/10/14 03:49:20;;;;;;;8.43;3.67;;;18.80;4.90;;;;;;4998804;28;47536;-86
2023/10/14 03:51:52;;;;;;;6.73;3.80;;;18.90;4.90;;;;;;4997227;28;46824;-83
2023/10/14 03:54:24;;;;;;;8.70;3.30;;;18.90;5.00;;;;;;4999738;28;46525;-84
2023/10/14 03:56:50;;;;;;;10.13;3.50;;;18.90;4.90;;;;;;4999692;28;46480;-85
2023/10/14 03:59:22;;;;;;;12.10;4.20;;;19.00;5.00;;;;;;5000370;28;48063;-83
2023/10/14 04:01:54;;;;;;;14.07;4.40;;;19.00;5.00;;;;;;4995702;28;46017;-83
2023/10/14 04:04:21;;;;;;;9.17;3.90;;;19.00;5.10;;;;;;4994873;28;46494;-83
2023/10/14 04:09:38;;;;;;;9.33;4.17;;;18.90;5.30;;;;;;4995704;28;46832;-84
2023/10/14 04:14:54;;;;;;;8.90;4.20;;;18.80;5.70;;;;;;4997170;28;47148;-83
2023/10/14 04:17:21;;;;;;;12.50;4.23;;;18.70;6.20;;;;;;4995278;28;46719;-84
2023/10/14 04:19:53;;;;;;;7.00;3.93;;;18.80;6.40;;;;;;4995762;28;47161;-81
2023/10/14 04:24:53;;;;;;;12.17;4.30;;;18.60;6.90;;;;;;4996850;28;46441;-83
2023/10/14 04:29:57;;;;;;;8.43;3.97;;;18.60;7.30;;;;;;4993524;28;46743;-84
2023/10/14 04:32:27;;;;;;;9.93;4.00;;;18.70;7.60;;;;;;4996119;28;46479;-83
2023/10/14 04:34:55;;;;;;;6.30;3.90;;;18.70;7.70;;;;;;4995044;28;46411;-83
2023/10/14 04:37:21;;;;;;;12.07;4.23;;;18.70;8.00;;;;;;4998526;28;46833;-83
2023/10/14 04:39:58;;;;;;;11.20;4.57;;;18.60;8.10;;;;;;4995415;28;46710;-82
2023/10/14 04:42:27;;;;;;;10.90;4.10;;;18.70;8.50;;;;;;4997285;28;46299;-84
2023/10/14 04:44:59;;;;;;;8.07;3.90;;;18.60;8.60;;;;;;4996660;28;46963;-82
2023/10/14 04:47:35;;;;;;;11.50;3.90;;;18.50;8.80;;;;;;4994545;28;46511;-82
2023/10/14 04:50:14;;;;;;;8.30;4.10;;;18.50;8.90;;;;;;4996657;28;48604;-83
2023/10/14 04:52:48;;;;;;;8.67;3.83;;;18.50;9.40;;;;;;4997288;28;45899;-84
2023/10/14 05:00:45;;;;;;;18.77;4.50;;;18.50;10.30;;;;;;4996408;28;46446;-83
2023/10/14 05:03:18;;;;;;;9.67;3.87;;;18.50;10.30;;;;;;4995738;28;46327;-84
2023/10/14 05:06:03;;;;;;;19.30;5.10;;;18.50;10.30;;;;;;4996846;28;46495;-80
2023/10/14 05:08:44;;;;;;;12.43;4.43;;;18.50;10.30;;;;;;5001157;28;46624;-85
2023/10/14 05:11:12;;;;;;;8.80;4.80;;;18.50;10.30;;;;;;4997419;28;47423;-82
2023/10/14 05:13:42;;;;;;;10.90;4.40;;;18.60;10.30;;;;;;5001477;28;46915;-84
2023/10/14 05:16:26;;;;;;;9.60;4.40;;;18.60;10.30;;;;;;5001374;28;46845;-83
2023/10/14 05:18:59;;;;;;;17.13;4.50;;;18.60;10.40;;;;;;5002644;28;46377;-85
2023/10/14 05:21:36;;;;;;;12.63;5.60;;;18.60;10.40;;;;;;4999888;28;47683;-82
2023/10/14 05:24:03;;;;;;;9.10;4.60;;;18.70;10.40;;;;;;4999532;28;46349;-84
2023/10/14 05:26:35;;;;;;;14.13;5.30;;;18.60;11.60;;;;;;5004771;28;45819;-84
2023/10/14 05:29:16;;;;;;;10.40;4.40;;;18.80;11.80;;;;;;5006096;28;46505;-83
2023/10/14 05:31:45;;;;;;;14.60;4.80;;;18.60;11.60;;;;;;5003707;28;47196;-84
2023/10/14 05:34:12;;;;;;;10.47;4.80;;;18.80;11.70;;;;;;5008568;28;46431;-84
2023/10/14 05:36:37;;;;;;;24.87;5.50;;;18.70;11.70;;;;;;5005828;28;46426;-84
2023/10/14 05:39:04;;;;;;;11.63;4.80;;;18.80;12.30;;;;;;5006209;28;46853;-86
2023/10/14 05:41:30;;;;;;;9.13;4.70;;;18.70;12.10;;;;;;5004516;28;49788;-84
2023/10/14 05:43:56;;;;;;;7.53;4.73;;;18.70;12.50;;;;;;5004719;28;46218;-85
2023/10/14 05:46:21;;;;;;;11.67;4.60;;;18.80;12.40;;;;;;5006710;28;46292;-87
2023/10/14 05:48:47;;;;;;;9.27;5.00;;;18.80;12.50;;;;;;5008219;28;46778;-82
2023/10/14 05:51:15;;;;;;;8.90;4.80;;;18.80;12.50;;;;;;5003587;28;46201;-84
2023/10/14 05:53:42;;;;;;;13.43;5.60;;;18.80;12.60;;;;;;5003769;28;46438;-84
2023/10/14 05:56:14;;;;;;;13.00;5.13;;;18.80;12.80;;;;;;5002195;28;46412;-83
2023/10/14 05:58:45;;;;;;;10.17;4.83;;;18.80;12.90;;;;;;5002189;28;46519;-82
2023/10/14 06:01:13;;;;;;;9.00;5.33;;;18.80;13.00;;;;;;5000398;28;47008;-84
2023/10/14 06:03:41;;;;;;;13.43;5.10;;;18.80;13.00;;;;;;5002812;28;46678;-83
2023/10/14 06:06:09;;;;;;;14.13;5.43;;;18.90;13.10;;;;;;5001378;28;46515;-81
2023/10/14 06:08:39;;;;;;;11.13;5.40;;;18.80;13.30;;;;;;5000561;28;46736;-83
2023/10/14 06:11:05;;;;;;;16.87;5.83;;;18.80;13.60;;;;;;5000175;28;47491;-83
2023/10/14 06:13:34;;;;;;;13.30;5.90;;;18.80;14.00;;;;;;5003403;28;46455;-82
2023/10/14 06:16:10;;;;;;;8.90;4.80;;;18.80;14.20;;;;;;5003258;28;46532;-84
2023/10/14 06:18:40;;;;;;;11.87;5.00;;;18.80;14.50;;;;;;5001510;28;46411;-84
2023/10/14 06:21:08;;;;;;;8.60;4.40;;;19.00;14.70;;;;;;4999223;28;46595;-83
2023/10/14 06:23:34;;;;;;;8.80;4.70;;;18.90;14.50;;;;;;5000128;28;46523;-84
2023/10/14 06:25:59;;;;;;;21.90;5.00;;;18.90;14.80;;;;;;5004000;28;46749;-85
2023/10/14 06:28:25;;;;;;;13.10;4.53;;;18.80;15.20;;;;;;5004561;28;46491;-86
2023/10/14 06:30:51;;;;;;;14.70;4.90;;;18.90;15.50;;;;;;5003985;28;48503;-84
2023/10/14 06:33:17;;;;;;;11.67;4.83;;;18.80;16.10;;;;;;5004724;28;47141;-85
2023/10/14 06:35:43;;;;;;;18.63;5.40;;;18.90;16.10;;;;;;4999369;28;46531;-86
2023/10/14 06:38:09;;;;;;;8.43;4.53;;;18.80;16.50;;;;;;4996728;28;46858;-82
2023/10/14 06:40:36;;;;;;;15.87;4.43;;;18.80;16.90;;;;;;4998053;28;48358;-86
2023/10/14 06:43:06;;;;;;;15.03;5.20;;;18.80;17.10;;;;;;4998502;28;45897;-85
2023/10/14 06:45:33;;;;;;;9.90;4.27;;;18.80;17.60;;;;;;4998041;28;46507;-81
2023/10/14 06:47:59;;;;;;;12.17;4.60;;;18.80;17.90;;;;;;4996624;28;46650;-83
2023/10/14 06:50:25;;;;;;;8.63;4.80;;;18.80;17.70;;;;;;4994157;28;47102;-81
2023/10/14 06:52:58;;;;;;;10.73;4.60;;;18.80;17.90;;;;;;4994989;28;46735;-81
2023/10/14 06:55:39;;;;;;;11.57;4.27;;;18.60;18.20;;;;;;4995490;28;46422;-81
2023/10/14 06:58:07;;;;;;;11.30;4.60;;;18.60;18.50;;;;;;4997256;28;46286;-79
2023/10/14 07:00:33;;;;;;;10.80;4.43;;;18.60;18.60;;;;;;4996844;28;48184;-80
2023/10/14 07:02:59;;;;;;;9.20;3.97;;;18.60;18.80;;;;;;4998703;28;46863;-81
2023/10/14 07:05:29;;;;;;;10.03;4.50;;;18.70;19.00;;;;;;4996336;28;45956;-81
2023/10/14 07:07:58;;;;;;;8.17;4.43;;;18.50;18.90;;;;;;4998220;28;46534;-81
2023/10/14 07:10:32;;;;;;;10.70;4.60;;;18.60;19.20;;;;;;4998955;28;47141;-82
2023/10/14 07:13:00;;;;;;;9.13;4.80;;;18.60;19.20;;;;;;5000286;28;46519;-82
2023/10/14 07:15:33;;;;;;;10.30;4.57;;;18.70;19.10;;;;;;5000055;28;46863;-83
2023/10/14 07:17:59;;;;;;;13.27;4.67;;;18.70;18.80;;;;;;4998898;28;46534;-80
2023/10/14 07:20:31;;;;;;;9.23;4.60;;;18.80;18.90;;;;;;4999385;28;46562;-82
2023/10/14 07:22:58;;;;;;;16.00;5.10;;;18.90;18.70;;;;;;4999134;28;46514;-81
2023/10/14 07:25:31;;;;;;;9.07;4.20;;;18.90;18.60;;;;;;5000106;28;46673;-83
2023/10/14 07:27:59;;;;;;;9.50;4.37;;;18.90;18.60;;;;;;5000047;28;46838;-82
2023/10/14 07:30:27;;;;;;;12.23;3.80;;;19.00;18.80;;;;;;5001537;28;49540;-82
2023/10/14 07:32:54;;;;;;;7.40;3.70;;;18.90;18.80;;;;;;5004512;28;46531;-82
2023/10/14 07:35:20;;;;;;;10.80;4.27;;;18.90;18.80;;;;;;5004892;28;46359;-82
2023/10/14 07:37:51;;;;;;;8.57;3.67;;;18.90;18.80;;;;;;4998160;28;46579;-81
2023/10/14 07:40:24;;;;;;;8.70;4.20;;;19.00;18.90;;;;;;4997583;28;46705;-80
2023/10/14 07:42:53;;;;;;;12.07;4.53;;;19.00;18.60;;;;;;4995139;28;46989;-81
2023/10/14 07:45:20;;;;;;;17.67;3.57;;;19.00;18.50;;;;;;4996128;28;46554;-81
2023/10/14 07:47:50;;;;;;;11.57;3.80;;;19.10;18.70;;;;;;4998211;28;46472;-81
2023/10/14 07:50:16;;;;;;;11.37;4.93;;;19.10;18.60;;;;;;4996000;28;46480;-82
2023/10/14 07:52:43;;;;;;;8.30;4.40;;;19.10;18.70;;;;;;5000614;28;47700;-81
2023/10/14 07:55:15;;;;;;;6.57;3.43;;;19.20;18.70;;;;;;4995675;28;46490;-81
2023/10/14 07:57:41;;;;;;;8.03;4.10;;;19.30;18.70;;;;;;4998729;28;45818;-80
2023/10/14 08:00:14;;;;;;;7.83;4.40;;;19.40;18.90;;;;;;4996754;28;47979;-81
2023/10/14 08:02:40;;;;;;;12.40;4.10;;;19.40;19.10;;;;;;4996029;28;46472;-81
2023/10/14 08:05:07;;;;;;;8.67;4.00;;;19.50;19.00;;;;;;4998016;28;46819;-82
2023/10/14 08:07:40;;;;;;;14.00;4.70;;;19.50;19.00;;;;;;4999775;28;46725;-80
2023/10/14 08:10:18;;;;;;;7.70;4.23;;;19.50;19.00;;;;;;4998856;28;46893;-81
2023/10/14 08:12:47;;;;;;;11.33;4.80;;;19.40;18.90;;;;;;4997372;28;46436;-81
2023/10/14 08:15:14;;;;;;;11.30;4.63;;;19.50;19.00;;;;;;4987090;28;46715;-79
2023/10/14 08:17:43;;;;;;;11.37;4.37;;;19.40;19.10;;;;;;4998107;28;46480;-81
2023/10/14 08:20:18;;;;;;;8.40;4.20;;;19.40;19.20;;;;;;4995509;28;47302;-79
2023/10/14 08:22:45;;;;;;;9.50;4.67;;;19.30;19.30;;;;;;4998184;28;46235;-80
2023/10/14 08:25:12;;;;;;;9.50;4.97;;;19.30;19.40;;;;;;4998399;28;46454;-82
2023/10/14 08:27:40;;;;;;;12.67;4.80;;;19.20;19.50;;;;;;4996730;28;46747;-81
2023/10/14 08:30:12;;;;;;;9.93;4.33;;;19.30;19.60;;;;;;4998560;28;46538;-79
2023/10/14 08:32:46;;;;;;;17.50;5.60;;;19.30;19.20;;;;;;4997242;28;46526;-80
2023/10/14 08:35:16;;;;;;;16.83;5.57;;;19.40;19.10;;;;;;4995531;28;46548;-79
2023/10/14 08:37:52;;;;;;;10.70;4.90;;;19.50;19.10;;;;;;4996075;28;46366;-80
2023/10/14 08:40:19;;;;;;;10.33;5.20;;;19.60;18.70;;;;;;4995098;28;46602;-80
2023/10/14 08:43:16;;;;;;;10.70;4.73;;;19.70;18.50;;;;;;4996674;28;46772;-80
2023/10/14 08:45:47;;;;;;;9.93;4.17;;;20.00;18.20;;;;;;4994990;28;46483;-79
2023/10/14 08:48:18;;;;;;;13.30;4.70;;;20.20;17.90;;;;;;4996484;28;46761;-80
2023/10/14 08:50:49;;;;;;;9.80;4.67;;;20.10;17.50;;;;;;4997527;28;49124;-81
2023/10/14 08:53:15;;;;;;;15.33;4.97;;;20.20;17.50;;;;;;4996393;28;46715;-81
2023/10/14 08:55:44;;;;;;;13.40;5.53;;;20.20;17.30;;;;;;4997086;28;46741;-80
2023/10/14 08:58:13;;;;;;;16.63;5.47;;;20.20;17.40;;;;;;4988742;28;46434;-80
2023/10/14 09:00:40;;;;;;;12.17;4.90;;;20.20;17.40;;;;;;4995439;28;48132;-81
2023/10/14 09:03:09;;;;;;;17.10;5.47;;;20.20;17.20;;;;;;5001285;28;47471;-80
2023/10/14 09:05:44;;;;;;;13.50;5.30;;;20.00;17.30;;;;;;5000976;28;46424;-81
2023/10/14 09:08:12;;;;;;;10.10;4.80;;;20.00;17.20;;;;;;5000104;28;46423;-83
2023/10/14 09:10:39;;;;;;;8.73;4.67;;;20.00;17.30;;;;;;5001478;28;46910;-80
2023/10/14 09:13:08;;;;;;;13.03;5.07;;;20.00;17.00;;;;;;4991298;28;46639;-81
2023/10/14 09:15:43;;;;;;;11.83;4.73;;;20.00;17.00;;;;;;5002231;28;46437;-82
2023/10/14 09:18:19;;;;;;;9.30;4.13;;;20.10;17.00;;;;;;5002485;28;46211;-80
2023/10/14 09:20:45;;;;;;;12.80;4.83;;;20.00;17.00;;;;;;5004428;28;46944;-83
2023/10/14 09:23:19;;;;;;;9.63;4.07;;;20.10;16.70;;;;;;5003525;28;45885;-84
2023/10/14 09:25:58;;;;;;;8.63;4.40;;;20.10;16.50;;;;;;5003071;28;46459;-80
2023/10/14 09:28:29;;;;;;;12.30;4.80;;;20.30;16.20;;;;;;4996331;28;47165;-87
2023/10/14 09:30:57;;;;;;;11.03;4.70;;;20.40;15.80;;;;;;5004862;28;47463;-85
2023/10/14 09:33:22;;;;;;;8.47;4.87;;;20.60;15.50;;;;;;4997617;28;46450;-85
2023/10/14 09:35:50;;;;;;;11.20;4.73;;;20.70;15.30;;;;;;5000400;28;46423;-84
2023/10/14 09:38:22;;;;;;;15.93;4.53;;;20.90;14.90;;;;;;4999694;28;46713;-83
2023/10/14 09:40:57;;;;;;;8.43;3.50;;;20.90;14.70;;;;;;5001996;28;46019;-84
2023/10/14 09:43:23;;;;;;;14.30;4.30;;;20.90;14.40;;;;;;5003321;28;46545;-84
2023/10/14 09:45:56;;;;;;;7.83;3.67;;;21.00;14.30;;;;;;4997917;28;46547;-84
2023/10/14 09:48:24;;;;;;;12.23;4.10;;;20.90;14.20;;;;;;4996511;28;46452;-85
2023/10/14 09:50:50;;;;;;;21.07;3.70;;;20.90;14.10;;;;;;5001513;28;46717;-85
2023/10/14 09:53:17;;;;;;;15.60;4.07;;;20.70;14.00;;;;;;4998285;28;46539;-86
2023/10/14 09:55:43;;;;;;;8.93;4.00;;;20.80;14.10;;;;;;5006046;28;46434;-87
2023/10/14 09:58:13;;;;;;;10.07;4.07;;;20.90;14.10;;;;;;5002472;28;46207;-80
2023/10/14 10:00:40;;;;;;;8.53;3.90;;;20.90;13.80;;;;;;4997248;28;48129;-82
2023/10/14 10:03:10;;;;;;;22.37;4.27;;;20.90;13.70;;;;;;4998302;28;46510;-80
2023/10/14 10:05:41;;;;;;;11.83;3.70;;;20.80;13.50;;;;;;4999846;28;46651;-82
2023/10/14 10:08:52;;;;;;;14.10;4.07;;;20.90;13.40;;;;;;4997832;28;46554;-81
2023/10/14 10:11:23;;;;;;;8.90;4.10;;;21.10;12.90;;;;;;4995076;28;46490;-83
2023/10/14 10:13:51;;;;;;;10.97;3.60;;;21.00;12.90;;;;;;4999631;28;46454;-82
2023/10/14 10:16:20;;;;;;;13.10;4.77;;;21.20;11.30;;;;;;4996260;28;46710;-80
2023/10/14 10:18:56;;;;;;;7.07;3.57;;;21.20;12.20;;;;;;4998379;28;46479;-76
2023/10/14 10:21:34;;;;;;;13.70;4.17;;;21.40;12.40;;;;;;4997585;28;48088;-79
2023/10/14 10:24:09;;;;;;;16.40;3.93;;;21.40;12.30;;;;;;4998117;28;46552;-80
2023/10/14 10:26:56;;;;;;;11.30;4.10;;;21.40;12.30;;;;;;4999116;28;46614;-83
2023/10/14 10:29:22;;;;;;;16.40;4.03;;;21.50;12.40;;;;;;4996008;28;47196;-80
2023/10/14 10:32:08;;;;;;;14.70;3.80;;;21.70;12.10;;;;;;4997442;28;46973;-80
2023/10/14 10:34:54;;;;;;;8.83;3.40;;;22.00;11.30;;;;;;4998065;28;46876;-79
2023/10/14 10:37:21;;;;;;;8.80;3.60;;;21.90;11.20;;;;;;4996141;28;46731;-79
2023/10/14 10:39:50;;;;;;;6.10;3.23;;;21.70;10.70;;;;;;4997387;28;46506;-80
2023/10/14 10:42:16;;;;;;;13.10;4.03;;;21.50;10.80;;;;;;4995616;28;48295;-78
2023/10/14 10:44:43;;;;;;;15.27;4.03;;;21.30;12.00;;;;;;4998576;28;46794;-79
2023/10/14 10:47:12;;;;;;;12.43;3.60;;;21.30;11.20;;;;;;4996196;28;46445;-80
2023/10/14 10:49:58;;;;;;;14.70;3.20;;;21.10;12.00;;;;;;4989660;28;47019;-80
2023/10/14 10:52:26;;;;;;;10.67;3.43;;;21.00;12.00;;;;;;4988966;28;49186;-82
2023/10/14 10:54:53;;;;;;;12.13;3.70;;;21.10;12.10;;;;;;4997956;28;46946;-83
2023/10/14 10:57:19;;;;;;;7.83;3.30;;;21.30;11.70;;;;;;4996035;28;47768;-83
2023/10/14 10:59:46;;;;;;;10.30;3.53;;;21.60;11.40;;;;;;4997009;28;47362;-83
2023/10/14 11:02:15;;;;;;;9.20;3.47;;;21.80;11.00;;;;;;4996591;28;46355;-82
2023/10/14 11:04:42;;;;;;;13.03;3.77;;;22.00;11.60;;;;;;4999579;28;46739;-77
2023/10/14 11:07:11;;;;;;;7.37;3.07;;;22.20;10.40;;;;;;4997763;28;47003;-84
2023/10/14 11:09:39;;;;;;;8.30;3.53;;;22.70;10.30;;;;;;4999432;28;46757;-83
2023/10/14 11:12:07;;;;;;;7.23;2.93;;;22.60;9.70;;;;;;5003667;28;46551;-77
2023/10/14 11:14:32;;;;;;;7.37;2.67;;;22.80;9.10;;;;;;5004073;28;46625;-86
2023/10/14 11:16:58;;;;;;;9.70;3.40;;;23.00;9.10;;;;;;5000581;28;46450;-83
2023/10/14 11:19:30;;;;;;;6.80;2.40;;;23.30;8.60;;;;;;4998956;28;46445;-83
2023/10/14 11:21:59;;;;;;;7.90;3.40;;;23.40;7.70;;;;;;4999899;28;46116;-84
2023/10/14 11:24:30;;;;;;;10.97;2.77;;;23.20;7.60;;;;;;4994246;28;46670;-84
2023/10/14 11:26:57;;;;;;;8.47;3.03;;;23.00;7.90;;;;;;4996749;28;46785;-85
2023/10/14 11:29:27;;;;;;;8.73;2.90;;;22.90;7.90;;;;;;4997037;28;46427;-83
2023/10/14 11:31:57;;;;;;;8.50;3.03;;;22.80;8.10;;;;;;4994920;28;47438;-84
2023/10/14 11:34:22;;;;;;;8.13;3.20;;;22.70;8.20;;;;;;4996808;28;46559;-83
2023/10/14 11:36:48;;;;;;;7.50;3.20;;;22.70;8.20;;;;;;4996767;28;46446;-80
2023/10/14 11:39:18;;;;;;;11.03;3.00;;;22.60;8.00;;;;;;4996027;28;46727;-81
2023/10/14 11:41:50;;;;;;;7.63;3.23;;;22.50;8.30;;;;;;4993222;28;48291;-82
2023/10/14 11:44:17;;;;;;;11.90;4.10;;;22.60;8.00;;;;;;4994583;28;46766;-82
2023/10/14 11:46:43;;;;;;;8.50;2.63;;;22.40;8.00;;;;;;4996659;28;46863;-82
2023/10/14 11:49:13;;;;;;;10.70;2.87;;;22.30;8.20;;;;;;4996079;28;46512;-82
2023/10/14 11:51:43;;;;;;;9.70;2.57;;;22.60;8.00;;;;;;4997241;28;46887;-83
2023/10/14 11:54:11;;;;;;;9.03;2.60;;;22.90;7.40;;;;;;4994904;28;46380;-83
2023/10/14 11:56:38;;;;;;;7.90;3.13;;;22.70;7.30;;;;;;4996989;28;46631;-82
2023/10/14 11:59:04;;;;;;;9.57;3.43;;;22.50;7.20;;;;;;4998160;28;46446;-83
2023/10/14 12:01:34;;;;;;;5.40;2.60;;;22.60;7.40;;;;;;4994822;28;48495;-81
2023/10/14 12:03:59;;;;;;;7.73;2.90;;;22.60;7.00;;;;;;4993976;28;46727;-82
2023/10/14 12:06:26;;;;;;;8.40;2.90;;;22.30;6.80;;;;;;4995249;28;46458;-84
2023/10/14 12:08:53;;;;;;;7.40;3.20;;;22.30;7.70;;;;;;4997333;28;46323;-84
2023/10/14 12:11:19;;;;;;;5.50;2.97;;;22.40;7.90;;;;;;4996122;28;47031;-82
2023/10/14 12:13:44;;;;;;;9.30;4.03;;;22.50;7.90;;;;;;5000511;28;46386;-84
2023/10/14 12:16:11;;;;;;;11.57;3.63;;;22.50;7.70;;;;;;4997921;28;46717;-84
2023/10/14 12:18:36;;;;;;;8.27;3.10;;;22.30;8.50;;;;;;4995445;28;46809;-80
2023/10/14 12:21:03;;;;;;;7.50;3.37;;;21.90;12.00;;;;;;4996872;28;47140;-83
2023/10/14 12:23:31;;;;;;;9.63;3.73;;;20.90;16.00;;;;;;4995726;28;46605;-82
2023/10/14 12:25:58;;;;;;;6.53;3.37;;;20.10;19.70;;;;;;4997163;28;46562;-79
2023/10/14 12:28:27;;;;;;;11.63;3.90;;;19.80;21.10;;;;;;4995024;28;46614;-80
2023/10/14 12:30:56;;;;;;;12.43;4.50;;;19.40;23.30;;;;;;4995654;28;46429;-82
2023/10/14 12:33:22;;;;;;;10.87;4.23;;;18.90;25.40;;;;;;4996833;28;46681;-82
2023/10/14 12:35:51;;;;;;;15.87;4.17;;;18.60;28.70;;;;;;4991180;28;46190;-80
2023/10/14 12:38:20;;;;;;;15.50;4.50;;;18.70;28.30;;;;;;4999899;28;46491;-79
2023/10/14 12:40:48;;;;;;;13.53;3.90;;;19.00;28.00;;;;;;4998539;28;46690;-82
2023/10/14 12:43:15;;;;;;;6.83;4.00;;;19.30;26.10;;;;;;4999108;28;46494;-82
2023/10/14 12:45:42;;;;;;;7.70;3.93;;;19.50;26.50;;;;;;4999965;28;46417;-82
2023/10/14 12:48:10;;;;;;;10.30;4.00;;;19.70;25.50;;;;;;5000674;28;46693;-83
2023/10/14 12:50:46;;;;;;;7.40;4.33;;;19.70;24.40;;;;;;5000220;28;48807;-83
2023/10/14 12:53:13;;;;;;;7.53;4.17;;;19.80;24.10;;;;;;5001799;28;46400;-76
2023/10/14 12:55:44;;;;;;;7.60;4.20;;;19.90;23.60;;;;;;5004224;28;46477;-84
2023/10/14 12:58:12;;;;;;;11.13;4.30;;;19.80;23.80;;;;;;5004979;28;46626;-82
2023/10/14 13:00:38;;;;;;;8.73;4.17;;;19.90;23.40;;;;;;5000711;28;48259;-81
2023/10/14 13:03:09;;;;;;;9.60;4.50;;;20.00;23.00;;;;;;5000944;28;46463;-85
2023/10/14 13:05:35;;;;;;;10.47;4.13;;;20.10;22.70;;;;;;5001526;28;46779;-84
2023/10/14 13:08:02;;;;;;;11.00;4.03;;;20.10;22.80;;;;;;5002063;28;46696;-82
2023/10/14 13:10:28;;;;;;;6.63;3.90;;;20.00;22.80;;;;;;5000027;28;47006;-82
2023/10/14 13:12:58;;;;;;;9.67;3.70;;;20.00;22.70;;;;;;4999610;28;46824;-82
2023/10/14 13:15:28;;;;;;;9.37;4.00;;;20.00;23.10;;;;;;4998873;28;47507;-84
2023/10/14 13:17:58;;;;;;;9.43;4.00;;;19.80;23.00;;;;;;5003207;28;45901;-84
2023/10/14 13:20:27;;;;;;;7.40;4.20;;;19.70;23.20;;;;;;5004674;28;46680;-83
2023/10/14 13:22:55;;;;;;;7.43;3.20;;;19.60;23.30;;;;;;5003513;28;46431;-84
2023/10/14 13:25:21;;;;;;;9.33;3.03;;;19.50;23.40;;;;;;5002548;28;45917;-84
2023/10/14 13:27:49;;;;;;;5.40;3.10;;;19.40;23.30;;;;;;5004569;28;46123;-84
2023/10/14 13:30:16;;;;;;;5.40;2.53;;;19.40;23.10;;;;;;5003601;28;48524;-83
2023/10/14 13:32:41;;;;;;;9.53;3.87;;;19.40;22.90;;;;;;4999844;28;46472;-85
2023/10/14 13:35:07;;;;;;;7.10;2.70;;;19.30;22.90;;;;;;5000596;28;46887;-85